Armada, Nebraska
Current Conditions -  °F | °C
As of 4:35 PM on Sunday 25 Jan 2015 (Local Time) from KEAR Reporting Station
Clear Clear  
Wind Chill: 37°   Ceiling: Unl
Heat Index: 43°   Visibility: 10mi
Dew Point: 27°   Wind: 12mph
Humidity: 53%   Direction: 360°N
Pressure: 30.09"   Gusts: NA
Location:  40.9599°N, 99.3688°W
Report Text: KEAR 252235Z 36010KT 10SM CLR 06/M03 A3009 RMK AO1
Loading
Personal Weather Stations






























Interactive Weather Map New forecast layout! Learn more

10-Day Weather Forecast

Advertisements
Track Severe Weather on mobile